BRU1978 UMMS-UUWW
Flight info
| Callsign | BRU1978 |
|---|---|
| Flight time | N/A |
| Altitude | 35000 |
| Route | SORFO2F SORFO L979 PASUD T52 BILRU BILRU3A |
| Aircraft | B738/M-SDE2E3FGHIRWXY/LB1 |
Departure
| Time | N/A |
|---|---|
| Airport | Minsk National Airport (UMMS) |
Arrival
| Time | 2026-04-30 08:24 |
|---|---|
| Airport | Vnukovo International Airport (UUWW) |
| Time | Latitude | Longitude | Altitude | Speed | Heading |
|---|---|---|---|---|---|
| 2026-04-30 08:16 | 55.42097 | 37.42040 | 4509 ft | 172 kts | 14° |
| 2026-04-30 08:17 | 55.43252 | 37.42595 | 4430 ft | 172 kts | 14° |
| 2026-04-30 08:17 | 55.44408 | 37.43150 | 4380 ft | 172 kts | 14° |
| 2026-04-30 08:17 | 55.45567 | 37.43705 | 4287 ft | 175 kts | 14° |
| 2026-04-30 08:17 | 55.46742 | 37.44270 | 4203 ft | 174 kts | 13° |
| 2026-04-30 08:18 | 55.47907 | 37.44830 | 4144 ft | 174 kts | 14° |
| 2026-04-30 08:18 | 55.49070 | 37.45389 | 4080 ft | 172 kts | 13° |
| 2026-04-30 08:18 | 55.50205 | 37.45934 | 4016 ft | 172 kts | 13° |
| 2026-04-30 08:18 | 55.51389 | 37.46504 | 3822 ft | 176 kts | 14° |
| 2026-04-30 08:19 | 55.52558 | 37.47070 | 3647 ft | 173 kts | 14° |
| 2026-04-30 08:19 | 55.53684 | 37.47616 | 3484 ft | 168 kts | 13° |
| 2026-04-30 08:19 | 55.54803 | 37.48158 | 3315 ft | 167 kts | 13° |
| 2026-04-30 08:19 | 55.55926 | 37.48702 | 3033 ft | 169 kts | 14° |
| 2026-04-30 08:20 | 55.57045 | 37.49245 | 2885 ft | 163 kts | 14° |
| 2026-04-30 08:20 | 55.58146 | 37.49779 | 2778 ft | 165 kts | 13° |
| 2026-04-30 08:20 | 55.59285 | 37.50152 | 2618 ft | 170 kts | 350° |
| 2026-04-30 08:20 | 55.60362 | 37.49361 | 2599 ft | 168 kts | 335° |
| 2026-04-30 08:21 | 55.61457 | 37.48562 | 2455 ft | 170 kts | 339° |
| 2026-04-30 08:21 | 55.62554 | 37.47822 | 2310 ft | 167 kts | 338° |
| 2026-04-30 08:21 | 55.63507 | 37.46730 | 2158 ft | 164 kts | 307° |
| 2026-04-30 08:21 | 55.63681 | 37.44817 | 2085 ft | 167 kts | 252° |
| 2026-04-30 08:22 | 55.63201 | 37.42926 | 2051 ft | 170 kts | 251° |
| 2026-04-30 08:22 | 55.62757 | 37.40991 | 1881 ft | 166 kts | 251° |
| 2026-04-30 08:22 | 55.62300 | 37.39117 | 1764 ft | 166 kts | 249° |
| 2026-04-30 08:22 | 55.61853 | 37.37313 | 1729 ft | 153 kts | 251° |
| 2026-04-30 08:23 | 55.61430 | 37.35593 | 1513 ft | 152 kts | 249° |
| 2026-04-30 08:23 | 55.61006 | 37.33927 | 1310 ft | 146 kts | 245° |
| 2026-04-30 08:23 | 55.60542 | 37.32344 | 1195 ft | 141 kts | 246° |
| 2026-04-30 08:23 | 55.60180 | 37.30821 | 1010 ft | 130 kts | 250° |
| 2026-04-30 08:24 | 55.59881 | 37.29336 | 786 ft | 126 kts | 246° |
| 2026-04-30 08:24 | 55.59564 | 37.27927 | 684 ft | 117 kts | 246° |
| 2026-04-30 08:24 | 55.59302 | 37.26801 | 668 ft | 78 kts | 249° |
| 2026-04-30 08:24 | 55.59192 | 37.26227 | 668 ft | 23 kts | 290° |
| 2026-04-30 08:25 | 55.59326 | 37.26262 | 667 ft | 22 kts | 28° |
| 2026-04-30 08:25 | 55.59441 | 37.26424 | 667 ft | 21 kts | 53° |
| 2026-04-30 08:25 | 55.59497 | 37.26659 | 667 ft | 21 kts | 66° |
| 2026-04-30 08:25 | 55.59567 | 37.26876 | 667 ft | 20 kts | 49° |
| 2026-04-30 08:26 | 55.59660 | 37.27055 | 667 ft | 19 kts | 47° |
| 2026-04-30 08:26 | 55.59752 | 37.27224 | 671 ft | 19 kts | 47° |
| 2026-04-30 08:26 | 55.59840 | 37.27390 | 672 ft | 18 kts | 47° |
| 2026-04-30 08:26 | 55.59926 | 37.27547 | 676 ft | 16 kts | 46° |
| 2026-04-30 08:27 | 55.59991 | 37.27698 | 678 ft | 15 kts | 48° |
| 2026-04-30 08:27 | 55.60071 | 37.27813 | 679 ft | 15 kts | 41° |
| 2026-04-30 08:27 | 55.60135 | 37.27886 | 676 ft | 5 kts | 356° |
| 2026-04-30 08:27 | 55.60180 | 37.27886 | 679 ft | 8 kts | 20° |
| 2026-04-30 08:28 | 55.60215 | 37.27969 | 679 ft | 9 kts | 62° |
| 2026-04-30 08:28 | 55.60221 | 37.27995 | 679 ft | 0 kts | 71° |